sensor_id;sensor_type;location;lat;lon;timestamp;temperature;humidity
61255;DHT22;47128;47.530;8.584;2022-12-26T00:01:09;7.10;99.90
61255;DHT22;47128;47.530;8.584;2022-12-26T00:03:34;7.10;99.90
61255;DHT22;47128;47.530;8.584;2022-12-26T00:06:00;7.00;99.90
61255;DHT22;47128;47.530;8.584;2022-12-26T00:08:25;7.00;99.90
61255;DHT22;47128;47.530;8.584;2022-12-26T00:10:51;7.00;99.90
61255;DHT22;47128;47.530;8.584;2022-12-26T00:13:16;7.00;99.90
61255;DHT22;47128;47.530;8.584;2022-12-26T00:15:42;7.00;99.90
61255;DHT22;47128;47.530;8.584;2022-12-26T00:18:07;6.90;99.90
61255;DHT22;47128;47.530;8.584;2022-12-26T00:20:33;6.80;99.90
61255;DHT22;47128;47.530;8.584;2022-12-26T00:22:58;6.80;99.90
61255;DHT22;47128;47.530;8.584;2022-12-26T00:25:24;6.80;99.90
61255;DHT22;47128;47.530;8.584;2022-12-26T00:27:49;6.80;99.90
61255;DHT22;47128;47.530;8.584;2022-12-26T00:32:41;6.60;99.90
61255;DHT22;47128;47.530;8.584;2022-12-26T00:35:06;6.50;99.90
61255;DHT22;47128;47.530;8.584;2022-12-26T00:37:32;6.50;99.90
61255;DHT22;47128;47.530;8.584;2022-12-26T00:39:57;6.40;99.90
61255;DHT22;47128;47.530;8.584;2022-12-26T00:42:23;6.30;99.90
61255;DHT22;47128;47.530;8.584;2022-12-26T00:44:48;6.30;99.90
61255;DHT22;47128;47.530;8.584;2022-12-26T00:47:14;6.20;99.90
61255;DHT22;47128;47.530;8.584;2022-12-26T00:49:39;6.20;99.90
61255;DHT22;47128;47.530;8.584;2022-12-26T00:52:05;6.20;99.90
61255;DHT22;47128;47.530;8.584;2022-12-26T00:54:30;6.10;99.90
61255;DHT22;47128;47.530;8.584;2022-12-26T00:56:56;6.10;99.90
61255;DHT22;47128;47.530;8.584;2022-12-26T00:59:21;6.00;99.90
61255;DHT22;47128;47.530;8.584;2022-12-26T01:01:47;6.00;99.90
61255;DHT22;47128;47.530;8.584;2022-12-26T01:04:12;5.90;99.90
61255;DHT22;47128;47.530;8.584;2022-12-26T01:06:37;5.90;99.90
61255;DHT22;47128;47.530;8.584;2022-12-26T01:09:03;5.80;99.90
61255;DHT22;47128;47.530;8.584;2022-12-26T01:11:28;5.80;99.90
61255;DHT22;47128;47.530;8.584;2022-12-26T01:14:11;5.80;99.90
61255;DHT22;47128;47.530;8.584;2022-12-26T01:16:37;5.80;99.90
61255;DHT22;47128;47.530;8.584;2022-12-26T01:19:02;5.80;99.90
61255;DHT22;47128;47.530;8.584;2022-12-26T01:21:28;5.80;99.90
61255;DHT22;47128;47.530;8.584;2022-12-26T01:23:53;5.80;99.90
61255;DHT22;47128;47.530;8.584;2022-12-26T01:26:19;5.80;99.90
61255;DHT22;47128;47.530;8.584;2022-12-26T01:28:45;5.80;99.90
61255;DHT22;47128;47.530;8.584;2022-12-26T01:31:10;5.80;99.90
61255;DHT22;47128;47.530;8.584;2022-12-26T01:33:36;5.80;99.90
61255;DHT22;47128;47.530;8.584;2022-12-26T01:36:01;5.70;99.90
61255;DHT22;47128;47.530;8.584;2022-12-26T01:38:27;5.70;99.90
61255;DHT22;47128;47.530;8.584;2022-12-26T01:40:52;5.70;99.90
61255;DHT22;47128;47.530;8.584;2022-12-26T01:43:46;5.70;99.90
61255;DHT22;47128;47.530;8.584;2022-12-26T01:46:11;5.70;99.90
61255;DHT22;47128;47.530;8.584;2022-12-26T01:48:37;5.80;99.90
61255;DHT22;47128;47.530;8.584;2022-12-26T01:51:03;5.80;99.90
61255;DHT22;47128;47.530;8.584;2022-12-26T01:55:57;5.80;99.90
61255;DHT22;47128;47.530;8.584;2022-12-26T01:58:26;5.80;99.90
61255;DHT22;47128;47.530;8.584;2022-12-26T02:00:54;5.80;99.90
61255;DHT22;47128;47.530;8.584;2022-12-26T02:03:19;5.80;99.90
61255;DHT22;47128;47.530;8.584;2022-12-26T02:06:03;5.70;99.90
61255;DHT22;47128;47.530;8.584;2022-12-26T02:08:30;5.80;99.90
61255;DHT22;47128;47.530;8.584;2022-12-26T02:13:22;5.80;99.90
61255;DHT22;47128;47.530;8.584;2022-12-26T02:15:48;5.80;99.90
61255;DHT22;47128;47.530;8.584;2022-12-26T02:18:14;5.80;99.90
61255;DHT22;47128;47.530;8.584;2022-12-26T02:20:40;5.70;99.90
61255;DHT22;47128;47.530;8.584;2022-12-26T02:28:35;5.70;99.90
61255;DHT22;47128;47.530;8.584;2022-12-26T02:31:12;5.60;99.90
61255;DHT22;47128;47.530;8.584;2022-12-26T02:34:03;5.60;99.90
61255;DHT22;47128;47.530;8.584;2022-12-26T02:39:17;5.50;99.90
61255;DHT22;47128;47.530;8.584;2022-12-26T02:50:01;5.90;99.90
61255;DHT22;47128;47.530;8.584;2022-12-26T02:52:54;5.80;99.90
61255;DHT22;47128;47.530;8.584;2022-12-26T02:55:41;5.80;99.90
61255;DHT22;47128;47.530;8.584;2022-12-26T02:58:33;5.80;99.90
61255;DHT22;47128;47.530;8.584;2022-12-26T03:01:29;5.90;99.90
61255;DHT22;47128;47.530;8.584;2022-12-26T03:04:16;5.90;99.90
61255;DHT22;47128;47.530;8.584;2022-12-26T03:07:02;5.90;99.90
61255;DHT22;47128;47.530;8.584;2022-12-26T03:09:47;5.80;99.90
61255;DHT22;47128;47.530;8.584;2022-12-26T03:12:35;5.70;99.90
61255;DHT22;47128;47.530;8.584;2022-12-26T03:15:21;5.70;99.90
61255;DHT22;47128;47.530;8.584;2022-12-26T03:17:55;5.50;99.90
61255;DHT22;47128;47.530;8.584;2022-12-26T03:20:29;5.50;99.90
61255;DHT22;47128;47.530;8.584;2022-12-26T03:23:05;5.50;99.90
61255;DHT22;47128;47.530;8.584;2022-12-26T03:28:20;5.70;99.90
61255;DHT22;47128;47.530;8.584;2022-12-26T03:30:46;5.90;99.90
61255;DHT22;47128;47.530;8.584;2022-12-26T03:33:19;5.90;99.90
61255;DHT22;47128;47.530;8.584;2022-12-26T03:36:06;5.90;99.90
61255;DHT22;47128;47.530;8.584;2022-12-26T03:38:40;5.90;99.90
61255;DHT22;47128;47.530;8.584;2022-12-26T03:41:26;6.00;99.90
61255;DHT22;47128;47.530;8.584;2022-12-26T03:44:26;6.00;99.90
61255;DHT22;47128;47.530;8.584;2022-12-26T03:47:16;6.20;99.90
61255;DHT22;47128;47.530;8.584;2022-12-26T03:50:03;6.30;99.90
61255;DHT22;47128;47.530;8.584;2022-12-26T03:53:01;6.30;99.90
61255;DHT22;47128;47.530;8.584;2022-12-26T03:55:54;6.30;99.90
61255;DHT22;47128;47.530;8.584;2022-12-26T04:01:24;6.20;99.90
61255;DHT22;47128;47.530;8.584;2022-12-26T04:04:10;6.30;99.90
61255;DHT22;47128;47.530;8.584;2022-12-26T04:07:21;6.30;99.90
61255;DHT22;47128;47.530;8.584;2022-12-26T04:10:08;6.30;99.90
61255;DHT22;47128;47.530;8.584;2022-12-26T04:12:53;6.30;99.90
61255;DHT22;47128;47.530;8.584;2022-12-26T04:15:41;6.30;99.90
61255;DHT22;47128;47.530;8.584;2022-12-26T04:18:35;6.50;99.90
61255;DHT22;47128;47.530;8.584;2022-12-26T04:21:25;6.60;99.90
61255;DHT22;47128;47.530;8.584;2022-12-26T04:24:21;6.60;99.90
61255;DHT22;47128;47.530;8.584;2022-12-26T04:27:07;6.60;99.90
61255;DHT22;47128;47.530;8.584;2022-12-26T04:29:53;6.50;99.90
61255;DHT22;47128;47.530;8.584;2022-12-26T04:32:47;6.40;99.90
61255;DHT22;47128;47.530;8.584;2022-12-26T04:38:36;6.50;99.90
61255;DHT22;47128;47.530;8.584;2022-12-26T04:41:20;6.50;99.90
61255;DHT22;47128;47.530;8.584;2022-12-26T04:44:05;6.60;99.90
61255;DHT22;47128;47.530;8.584;2022-12-26T04:46:41;6.50;99.90
61255;DHT22;47128;47.530;8.584;2022-12-26T04:49:09;6.50;99.90
61255;DHT22;47128;47.530;8.584;2022-12-26T04:51:55;6.60;99.90
61255;DHT22;47128;47.530;8.584;2022-12-26T04:54:21;6.60;99.90
61255;DHT22;47128;47.530;8.584;2022-12-26T04:56:46;6.50;99.90
61255;DHT22;47128;47.530;8.584;2022-12-26T04:59:12;6.60;99.90
61255;DHT22;47128;47.530;8.584;2022-12-26T05:01:38;6.60;99.90
61255;DHT22;47128;47.530;8.584;2022-12-26T05:04:22;6.70;99.90
61255;DHT22;47128;47.530;8.584;2022-12-26T05:07:10;6.70;99.90
61255;DHT22;47128;47.530;8.584;2022-12-26T05:10:06;6.80;99.90
61255;DHT22;47128;47.530;8.584;2022-12-26T05:12:33;6.70;99.90
61255;DHT22;47128;47.530;8.584;2022-12-26T05:14:58;6.70;99.90
61255;DHT22;47128;47.530;8.584;2022-12-26T05:17:24;6.80;99.90
61255;DHT22;47128;47.530;8.584;2022-12-26T05:20:10;6.90;99.90
61255;DHT22;47128;47.530;8.584;2022-12-26T05:22:54;6.90;99.90
61255;DHT22;47128;47.530;8.584;2022-12-26T05:25:39;6.90;99.90
61255;DHT22;47128;47.530;8.584;2022-12-26T05:28:24;7.00;99.90
61255;DHT22;47128;47.530;8.584;2022-12-26T05:31:09;7.10;99.90
61255;DHT22;47128;47.530;8.584;2022-12-26T05:33:35;7.10;99.90
61255;DHT22;47128;47.530;8.584;2022-12-26T05:36:20;7.20;99.90
61255;DHT22;47128;47.530;8.584;2022-12-26T05:38:47;7.30;99.90
61255;DHT22;47128;47.530;8.584;2022-12-26T05:41:13;7.40;99.90
61255;DHT22;47128;47.530;8.584;2022-12-26T05:43:39;7.50;99.90
61255;DHT22;47128;47.530;8.584;2022-12-26T05:46:04;7.50;99.90
61255;DHT22;47128;47.530;8.584;2022-12-26T05:48:30;7.50;99.90
61255;DHT22;47128;47.530;8.584;2022-12-26T05:50:58;7.60;99.90
61255;DHT22;47128;47.530;8.584;2022-12-26T05:53:24;7.50;99.90
61255;DHT22;47128;47.530;8.584;2022-12-26T05:55:50;7.50;99.90
61255;DHT22;47128;47.530;8.584;2022-12-26T05:58:15;7.60;99.90
61255;DHT22;47128;47.530;8.584;2022-12-26T06:00:41;7.60;99.90
61255;DHT22;47128;47.530;8.584;2022-12-26T06:03:06;7.60;99.90
61255;DHT22;47128;47.530;8.584;2022-12-26T06:05:32;7.60;99.90
61255;DHT22;47128;47.530;8.584;2022-12-26T06:07:57;7.60;99.90
61255;DHT22;47128;47.530;8.584;2022-12-26T06:10:24;7.60;99.90
61255;DHT22;47128;47.530;8.584;2022-12-26T06:12:51;7.60;99.90
61255;DHT22;47128;47.530;8.584;2022-12-26T06:15:17;7.70;99.90
61255;DHT22;47128;47.530;8.584;2022-12-26T06:17:43;7.80;99.90
61255;DHT22;47128;47.530;8.584;2022-12-26T06:20:08;7.80;99.90
61255;DHT22;47128;47.530;8.584;2022-12-26T06:22:34;7.90;99.90
61255;DHT22;47128;47.530;8.584;2022-12-26T06:24:59;8.00;99.90
61255;DHT22;47128;47.530;8.584;2022-12-26T06:27:25;8.00;99.90
61255;DHT22;47128;47.530;8.584;2022-12-26T06:29:50;8.20;99.90
61255;DHT22;47128;47.530;8.584;2022-12-26T06:32:16;8.20;99.90
61255;DHT22;47128;47.530;8.584;2022-12-26T06:34:41;8.10;99.90
61255;DHT22;47128;47.530;8.584;2022-12-26T06:37:07;8.10;99.90
61255;DHT22;47128;47.530;8.584;2022-12-26T06:39:32;8.10;99.90
61255;DHT22;47128;47.530;8.584;2022-12-26T06:41:58;8.00;99.90
61255;DHT22;47128;47.530;8.584;2022-12-26T06:44:23;7.90;99.90
61255;DHT22;47128;47.530;8.584;2022-12-26T06:46:49;7.80;99.90
61255;DHT22;47128;47.530;8.584;2022-12-26T06:49:14;7.80;99.90
61255;DHT22;47128;47.530;8.584;2022-12-26T06:51:39;7.80;99.90
61255;DHT22;47128;47.530;8.584;2022-12-26T06:54:05;7.90;99.90
61255;DHT22;47128;47.530;8.584;2022-12-26T06:56:31;7.80;99.90
61255;DHT22;47128;47.530;8.584;2022-12-26T06:58:57;7.90;99.90
61255;DHT22;47128;47.530;8.584;2022-12-26T07:01:24;8.00;99.90
61255;DHT22;47128;47.530;8.584;2022-12-26T07:03:50;8.00;99.90
61255;DHT22;47128;47.530;8.584;2022-12-26T07:06:20;8.00;99.90
61255;DHT22;47128;47.530;8.584;2022-12-26T07:08:46;8.10;99.90
61255;DHT22;47128;47.530;8.584;2022-12-26T07:11:15;8.10;99.90
61255;DHT22;47128;47.530;8.584;2022-12-26T07:13:41;8.20;99.90
61255;DHT22;47128;47.530;8.584;2022-12-26T07:16:07;8.40;99.90
61255;DHT22;47128;47.530;8.584;2022-12-26T07:18:32;8.50;99.90
61255;DHT22;47128;47.530;8.584;2022-12-26T07:20:58;8.70;99.90
61255;DHT22;47128;47.530;8.584;2022-12-26T07:23:23;9.00;99.90
61255;DHT22;47128;47.530;8.584;2022-12-26T07:25:49;9.00;99.90
61255;DHT22;47128;47.530;8.584;2022-12-26T07:28:14;9.20;99.90
61255;DHT22;47128;47.530;8.584;2022-12-26T07:30:47;9.20;99.90
61255;DHT22;47128;47.530;8.584;2022-12-26T07:33:12;9.10;99.90
61255;DHT22;47128;47.530;8.584;2022-12-26T07:35:38;9.20;99.90
61255;DHT22;47128;47.530;8.584;2022-12-26T07:38:03;9.20;99.90
61255;DHT22;47128;47.530;8.584;2022-12-26T07:40:29;9.20;99.90
61255;DHT22;47128;47.530;8.584;2022-12-26T07:42:54;9.20;99.90
61255;DHT22;47128;47.530;8.584;2022-12-26T07:45:19;9.20;99.90
61255;DHT22;47128;47.530;8.584;2022-12-26T07:47:45;9.20;99.90
61255;DHT22;47128;47.530;8.584;2022-12-26T07:50:10;9.10;99.90
61255;DHT22;47128;47.530;8.584;2022-12-26T07:52:36;9.20;99.90
61255;DHT22;47128;47.530;8.584;2022-12-26T07:55:01;9.30;99.90
61255;DHT22;47128;47.530;8.584;2022-12-26T07:57:28;9.40;99.90
61255;DHT22;47128;47.530;8.584;2022-12-26T07:59:54;9.40;99.90
61255;DHT22;47128;47.530;8.584;2022-12-26T08:02:19;9.40;99.90
61255;DHT22;47128;47.530;8.584;2022-12-26T08:04:45;9.50;99.90
61255;DHT22;47128;47.530;8.584;2022-12-26T08:07:10;9.40;99.90
61255;DHT22;47128;47.530;8.584;2022-12-26T08:09:36;9.30;99.90
61255;DHT22;47128;47.530;8.584;2022-12-26T08:12:04;9.20;99.90
61255;DHT22;47128;47.530;8.584;2022-12-26T08:14:29;9.20;99.90
61255;DHT22;47128;47.530;8.584;2022-12-26T08:16:55;9.10;99.90
61255;DHT22;47128;47.530;8.584;2022-12-26T08:19:20;9.10;99.90
61255;DHT22;47128;47.530;8.584;2022-12-26T08:21:45;9.20;99.90
61255;DHT22;47128;47.530;8.584;2022-12-26T08:24:11;9.20;99.90
61255;DHT22;47128;47.530;8.584;2022-12-26T08:26:37;9.20;99.90
61255;DHT22;47128;47.530;8.584;2022-12-26T08:29:02;9.20;99.90
61255;DHT22;47128;47.530;8.584;2022-12-26T08:31:28;9.30;99.90
61255;DHT22;47128;47.530;8.584;2022-12-26T08:33:54;9.30;99.90
61255;DHT22;47128;47.530;8.584;2022-12-26T08:36:21;9.30;99.90
61255;DHT22;47128;47.530;8.584;2022-12-26T08:38:47;9.30;99.90
61255;DHT22;47128;47.530;8.584;2022-12-26T08:41:12;9.30;99.90
61255;DHT22;47128;47.530;8.584;2022-12-26T08:43:38;9.40;99.90
61255;DHT22;47128;47.530;8.584;2022-12-26T08:48:29;9.50;99.90
61255;DHT22;47128;47.530;8.584;2022-12-26T08:50:56;9.50;99.90
61255;DHT22;47128;47.530;8.584;2022-12-26T08:53:21;9.50;99.90
61255;DHT22;47128;47.530;8.584;2022-12-26T08:55:47;9.70;99.90
61255;DHT22;47128;47.530;8.584;2022-12-26T08:58:12;9.80;99.90
61255;DHT22;47128;47.530;8.584;2022-12-26T09:00:38;9.70;99.90
61255;DHT22;47128;47.530;8.584;2022-12-26T09:03:03;9.70;99.90
61255;DHT22;47128;47.530;8.584;2022-12-26T09:05:29;9.80;99.90
61255;DHT22;47128;47.530;8.584;2022-12-26T09:07:55;9.90;99.90
61255;DHT22;47128;47.530;8.584;2022-12-26T09:10:20;10.00;99.90
61255;DHT22;47128;47.530;8.584;2022-12-26T09:12:46;10.20;99.90
61255;DHT22;47128;47.530;8.584;2022-12-26T09:15:11;10.20;99.90
61255;DHT22;47128;47.530;8.584;2022-12-26T09:17:37;10.30;99.90
61255;DHT22;47128;47.530;8.584;2022-12-26T09:20:02;10.30;99.90
61255;DHT22;47128;47.530;8.584;2022-12-26T09:22:28;10.30;99.90
61255;DHT22;47128;47.530;8.584;2022-12-26T09:25:12;10.30;99.90
61255;DHT22;47128;47.530;8.584;2022-12-26T09:27:37;10.40;99.90
61255;DHT22;47128;47.530;8.584;2022-12-26T09:30:03;10.40;99.90
61255;DHT22;47128;47.530;8.584;2022-12-26T09:32:31;10.70;99.90
61255;DHT22;47128;47.530;8.584;2022-12-26T09:34:57;10.70;99.90
61255;DHT22;47128;47.530;8.584;2022-12-26T09:37:22;10.70;99.90
61255;DHT22;47128;47.530;8.584;2022-12-26T09:39:47;10.80;99.90
61255;DHT22;47128;47.530;8.584;2022-12-26T09:42:26;11.00;99.90
61255;DHT22;47128;47.530;8.584;2022-12-26T09:47:33;11.10;99.90
61255;DHT22;47128;47.530;8.584;2022-12-26T09:55:00;11.00;99.90
61255;DHT22;47128;47.530;8.584;2022-12-26T09:57:36;11.30;99.90
61255;DHT22;47128;47.530;8.584;2022-12-26T10:00:04;11.30;99.90
61255;DHT22;47128;47.530;8.584;2022-12-26T10:02:30;11.40;99.90
61255;DHT22;47128;47.530;8.584;2022-12-26T10:04:55;11.40;99.90
61255;DHT22;47128;47.530;8.584;2022-12-26T10:07:36;11.50;99.90
61255;DHT22;47128;47.530;8.584;2022-12-26T10:10:07;11.50;99.90
61255;DHT22;47128;47.530;8.584;2022-12-26T10:15:18;11.20;99.90
61255;DHT22;47128;47.530;8.584;2022-12-26T10:17:53;11.30;99.90
61255;DHT22;47128;47.530;8.584;2022-12-26T10:20:22;11.40;99.90
61255;DHT22;47128;47.530;8.584;2022-12-26T10:22:55;11.30;99.90
61255;DHT22;47128;47.530;8.584;2022-12-26T10:27:58;11.30;99.90
61255;DHT22;47128;47.530;8.584;2022-12-26T10:30:26;11.40;99.90
61255;DHT22;47128;47.530;8.584;2022-12-26T10:32:56;11.40;99.90
61255;DHT22;47128;47.530;8.584;2022-12-26T10:35:30;11.40;99.90
61255;DHT22;47128;47.530;8.584;2022-12-26T10:37:57;11.30;99.90
61255;DHT22;47128;47.530;8.584;2022-12-26T10:40:30;11.40;99.90
61255;DHT22;47128;47.530;8.584;2022-12-26T10:46:02;11.30;99.90
61255;DHT22;47128;47.530;8.584;2022-12-26T10:48:32;11.20;99.90
61255;DHT22;47128;47.530;8.584;2022-12-26T10:50:57;11.20;99.90
61255;DHT22;47128;47.530;8.584;2022-12-26T10:53:23;11.10;99.90
61255;DHT22;47128;47.530;8.584;2022-12-26T10:55:48;11.10;99.90
61255;DHT22;47128;47.530;8.584;2022-12-26T10:58:15;11.10;99.90
61255;DHT22;47128;47.530;8.584;2022-12-26T11:00:41;11.10;99.90
61255;DHT22;47128;47.530;8.584;2022-12-26T11:03:08;11.10;99.90
61255;DHT22;47128;47.530;8.584;2022-12-26T11:05:34;11.00;99.90
61255;DHT22;47128;47.530;8.584;2022-12-26T11:11:04;11.00;99.90
61255;DHT22;47128;47.530;8.584;2022-12-26T11:13:32;10.90;99.90
61255;DHT22;47128;47.530;8.584;2022-12-26T11:15:59;10.80;99.90
61255;DHT22;47128;47.530;8.584;2022-12-26T11:21:27;10.60;99.90
61255;DHT22;47128;47.530;8.584;2022-12-26T11:24:15;10.60;99.90
61255;DHT22;47128;47.530;8.584;2022-12-26T11:26:39;10.60;99.90
61255;DHT22;47128;47.530;8.584;2022-12-26T11:29:12;10.70;99.90
61255;DHT22;47128;47.530;8.584;2022-12-26T11:31:41;10.70;99.90
61255;DHT22;47128;47.530;8.584;2022-12-26T11:34:08;10.70;99.90
61255;DHT22;47128;47.530;8.584;2022-12-26T11:36:34;10.70;99.90
61255;DHT22;47128;47.530;8.584;2022-12-26T11:39:15;10.80;99.90
61255;DHT22;47128;47.530;8.584;2022-12-26T11:41:44;10.70;99.90
61255;DHT22;47128;47.530;8.584;2022-12-26T11:49:14;10.70;99.90
61255;DHT22;47128;47.530;8.584;2022-12-26T11:51:42;10.60;99.90
61255;DHT22;47128;47.530;8.584;2022-12-26T11:54:20;10.50;99.90
61255;DHT22;47128;47.530;8.584;2022-12-26T11:56:46;10.50;99.90
61255;DHT22;47128;47.530;8.584;2022-12-26T11:59:18;10.50;99.90
61255;DHT22;47128;47.530;8.584;2022-12-26T12:01:44;10.50;99.90
61255;DHT22;47128;47.530;8.584;2022-12-26T12:04:10;10.50;99.90
61255;DHT22;47128;47.530;8.584;2022-12-26T12:09:04;10.60;99.90
61255;DHT22;47128;47.530;8.584;2022-12-26T12:14:11;10.50;99.90
61255;DHT22;47128;47.530;8.584;2022-12-26T12:16:43;10.50;99.90
61255;DHT22;47128;47.530;8.584;2022-12-26T12:21:45;10.50;99.90
61255;DHT22;47128;47.530;8.584;2022-12-26T12:32:12;10.50;99.90
61255;DHT22;47128;47.530;8.584;2022-12-26T12:47:57;10.40;99.90
61255;DHT22;47128;47.530;8.584;2022-12-26T13:00:41;10.10;99.90
61255;DHT22;47128;47.530;8.584;2022-12-26T13:08:21;10.20;99.90
61255;DHT22;47128;47.530;8.584;2022-12-26T13:10:50;10.30;99.90
61255;DHT22;47128;47.530;8.584;2022-12-26T13:13:19;10.20;99.90
61255;DHT22;47128;47.530;8.584;2022-12-26T13:15:46;10.20;99.90
61255;DHT22;47128;47.530;8.584;2022-12-26T13:20:49;10.00;99.90
61255;DHT22;47128;47.530;8.584;2022-12-26T13:23:21;10.10;99.90
61255;DHT22;47128;47.530;8.584;2022-12-26T13:26:19;10.00;99.90
61255;DHT22;47128;47.530;8.584;2022-12-26T13:28:58;9.90;99.90
61255;DHT22;47128;47.530;8.584;2022-12-26T13:31:24;9.90;99.90
61255;DHT22;47128;47.530;8.584;2022-12-26T13:33:49;9.80;99.90
61255;DHT22;47128;47.530;8.584;2022-12-26T13:41:25;9.80;99.90
61255;DHT22;47128;47.530;8.584;2022-12-26T13:46:53;9.80;99.90
61255;DHT22;47128;47.530;8.584;2022-12-26T13:49:38;9.70;99.90
61255;DHT22;47128;47.530;8.584;2022-12-26T13:59:55;9.70;99.90
61255;DHT22;47128;47.530;8.584;2022-12-26T14:02:30;9.70;99.90
61255;DHT22;47128;47.530;8.584;2022-12-26T14:05:21;9.70;99.90
61255;DHT22;47128;47.530;8.584;2022-12-26T14:07:59;9.70;99.90
61255;DHT22;47128;47.530;8.584;2022-12-26T14:21:23;9.60;99.90
61255;DHT22;47128;47.530;8.584;2022-12-26T14:24:07;9.50;99.90
61255;DHT22;47128;47.530;8.584;2022-12-26T14:26:46;9.50;99.90
61255;DHT22;47128;47.530;8.584;2022-12-26T14:29:18;9.50;99.90
61255;DHT22;47128;47.530;8.584;2022-12-26T14:34:20;9.50;99.90
61255;DHT22;47128;47.530;8.584;2022-12-26T14:36:51;9.50;99.90
61255;DHT22;47128;47.530;8.584;2022-12-26T14:39:21;9.60;99.90
61255;DHT22;47128;47.530;8.584;2022-12-26T14:44:52;9.70;99.90
61255;DHT22;47128;47.530;8.584;2022-12-26T14:47:51;9.60;99.90
61255;DHT22;47128;47.530;8.584;2022-12-26T14:52:54;9.50;99.90
61255;DHT22;47128;47.530;8.584;2022-12-26T14:58:27;9.60;99.90
61255;DHT22;47128;47.530;8.584;2022-12-26T15:00:54;9.60;99.90
61255;DHT22;47128;47.530;8.584;2022-12-26T15:05:49;9.60;99.90
61255;DHT22;47128;47.530;8.584;2022-12-26T15:08:39;9.50;99.90
61255;DHT22;47128;47.530;8.584;2022-12-26T15:14:15;9.50;99.90
61255;DHT22;47128;47.530;8.584;2022-12-26T15:16:58;9.40;99.90
61255;DHT22;47128;47.530;8.584;2022-12-26T15:22:54;9.40;99.90
61255;DHT22;47128;47.530;8.584;2022-12-26T15:25:08;9.40;99.90
61255;DHT22;47128;47.530;8.584;2022-12-26T15:27:41;9.30;99.90
61255;DHT22;47128;47.530;8.584;2022-12-26T15:32:36;9.30;99.90
61255;DHT22;47128;47.530;8.584;2022-12-26T15:40:21;9.30;99.90
61255;DHT22;47128;47.530;8.584;2022-12-26T15:48:11;9.20;99.90
61255;DHT22;47128;47.530;8.584;2022-12-26T15:51:00;9.20;99.90
61255;DHT22;47128;47.530;8.584;2022-12-26T16:01:10;9.10;99.90
61255;DHT22;47128;47.530;8.584;2022-12-26T16:03:44;9.10;99.90
61255;DHT22;47128;47.530;8.584;2022-12-26T16:11:22;9.00;99.90
61255;DHT22;47128;47.530;8.584;2022-12-26T16:13:48;9.00;99.90
61255;DHT22;47128;47.530;8.584;2022-12-26T16:16:22;9.00;99.90
61255;DHT22;47128;47.530;8.584;2022-12-26T16:18:47;8.90;99.90
61255;DHT22;47128;47.530;8.584;2022-12-26T16:21:13;9.00;99.90
61255;DHT22;47128;47.530;8.584;2022-12-26T16:23:59;9.10;99.90
61255;DHT22;47128;47.530;8.584;2022-12-26T16:26:26;9.10;99.90
61255;DHT22;47128;47.530;8.584;2022-12-26T16:28:53;9.00;99.90
61255;DHT22;47128;47.530;8.584;2022-12-26T16:31:20;9.00;99.90
61255;DHT22;47128;47.530;8.584;2022-12-26T16:33:46;9.00;99.90
61255;DHT22;47128;47.530;8.584;2022-12-26T16:36:17;9.00;99.90
61255;DHT22;47128;47.530;8.584;2022-12-26T16:38:43;9.00;99.90
61255;DHT22;47128;47.530;8.584;2022-12-26T16:41:19;9.00;99.90
61255;DHT22;47128;47.530;8.584;2022-12-26T16:43:46;9.00;99.90
61255;DHT22;47128;47.530;8.584;2022-12-26T16:46:12;9.00;99.90
61255;DHT22;47128;47.530;8.584;2022-12-26T16:48:38;9.00;99.90
61255;DHT22;47128;47.530;8.584;2022-12-26T16:51:05;9.00;99.90
61255;DHT22;47128;47.530;8.584;2022-12-26T16:58:43;9.00;99.90
61255;DHT22;47128;47.530;8.584;2022-12-26T17:01:11;9.00;99.90
61255;DHT22;47128;47.530;8.584;2022-12-26T17:03:47;8.90;99.90
61255;DHT22;47128;47.530;8.584;2022-12-26T17:06:18;9.00;99.90
61255;DHT22;47128;47.530;8.584;2022-12-26T17:08:46;8.90;99.90
61255;DHT22;47128;47.530;8.584;2022-12-26T17:11:12;9.00;99.90
61255;DHT22;47128;47.530;8.584;2022-12-26T17:13:39;9.00;99.90
61255;DHT22;47128;47.530;8.584;2022-12-26T17:16:05;9.00;99.90
61255;DHT22;47128;47.530;8.584;2022-12-26T17:18:36;9.10;99.90
61255;DHT22;47128;47.530;8.584;2022-12-26T17:21:23;9.10;99.90
61255;DHT22;47128;47.530;8.584;2022-12-26T17:26:30;9.20;99.90
61255;DHT22;47128;47.530;8.584;2022-12-26T17:28:55;9.30;99.90
61255;DHT22;47128;47.530;8.584;2022-12-26T17:31:34;9.20;99.90
61255;DHT22;47128;47.530;8.584;2022-12-26T17:34:04;9.30;99.90
61255;DHT22;47128;47.530;8.584;2022-12-26T17:36:31;9.50;99.90
61255;DHT22;47128;47.530;8.584;2022-12-26T17:39:08;9.60;99.90
61255;DHT22;47128;47.530;8.584;2022-12-26T17:41:33;9.70;99.90
61255;DHT22;47128;47.530;8.584;2022-12-26T17:43:59;9.60;99.90
61255;DHT22;47128;47.530;8.584;2022-12-26T17:46:24;9.50;99.90
61255;DHT22;47128;47.530;8.584;2022-12-26T17:48:50;9.60;99.90
61255;DHT22;47128;47.530;8.584;2022-12-26T17:51:16;9.70;99.90
61255;DHT22;47128;47.530;8.584;2022-12-26T17:53:43;9.80;99.90
61255;DHT22;47128;47.530;8.584;2022-12-26T17:56:12;9.70;99.90
61255;DHT22;47128;47.530;8.584;2022-12-26T17:58:38;9.80;99.90
61255;DHT22;47128;47.530;8.584;2022-12-26T18:01:03;9.90;99.90
61255;DHT22;47128;47.530;8.584;2022-12-26T18:03:29;9.90;99.90
61255;DHT22;47128;47.530;8.584;2022-12-26T18:05:54;9.90;99.90
61255;DHT22;47128;47.530;8.584;2022-12-26T18:08:27;9.80;99.90
61255;DHT22;47128;47.530;8.584;2022-12-26T18:10:54;9.70;99.90
61255;DHT22;47128;47.530;8.584;2022-12-26T18:13:20;9.60;99.90
61255;DHT22;47128;47.530;8.584;2022-12-26T18:15:45;9.50;99.90
61255;DHT22;47128;47.530;8.584;2022-12-26T18:18:19;9.60;99.90
61255;DHT22;47128;47.530;8.584;2022-12-26T18:20:45;9.70;99.90
61255;DHT22;47128;47.530;8.584;2022-12-26T18:23:11;9.70;99.90
61255;DHT22;47128;47.530;8.584;2022-12-26T18:25:36;9.70;99.90
61255;DHT22;47128;47.530;8.584;2022-12-26T18:28:02;9.80;99.90
61255;DHT22;47128;47.530;8.584;2022-12-26T18:30:27;9.90;99.90
61255;DHT22;47128;47.530;8.584;2022-12-26T18:32:53;9.90;99.90
61255;DHT22;47128;47.530;8.584;2022-12-26T18:35:19;9.90;99.90
61255;DHT22;47128;47.530;8.584;2022-12-26T18:37:49;9.90;99.90
61255;DHT22;47128;47.530;8.584;2022-12-26T18:40:29;10.00;99.90
61255;DHT22;47128;47.530;8.584;2022-12-26T18:42:55;10.10;99.90
61255;DHT22;47128;47.530;8.584;2022-12-26T18:45:21;10.00;99.90
61255;DHT22;47128;47.530;8.584;2022-12-26T18:47:46;9.90;99.90
61255;DHT22;47128;47.530;8.584;2022-12-26T18:50:13;9.90;99.90
61255;DHT22;47128;47.530;8.584;2022-12-26T18:52:39;10.00;99.90
61255;DHT22;47128;47.530;8.584;2022-12-26T18:55:04;10.00;99.90
61255;DHT22;47128;47.530;8.584;2022-12-26T18:57:30;10.00;99.90
61255;DHT22;47128;47.530;8.584;2022-12-26T18:59:55;10.00;99.90
61255;DHT22;47128;47.530;8.584;2022-12-26T19:02:21;10.10;99.90
61255;DHT22;47128;47.530;8.584;2022-12-26T19:04:46;10.20;99.90
61255;DHT22;47128;47.530;8.584;2022-12-26T19:07:16;10.20;99.90
61255;DHT22;47128;47.530;8.584;2022-12-26T19:09:47;10.20;99.90
61255;DHT22;47128;47.530;8.584;2022-12-26T19:12:13;10.10;99.90